createdAt,value
2022-12-22T00:05:04.636Z,4.60
2022-12-22T00:10:26.160Z,3.30
2022-12-22T00:15:50.177Z,2.30
2022-12-22T00:21:10.979Z,1.70
2022-12-22T00:26:31.937Z,4.15
2022-12-22T00:31:53.371Z,5.35
2022-12-22T00:37:14.341Z,5.67
2022-12-22T00:42:35.082Z,3.50
2022-12-22T00:47:56.040Z,3.25
2022-12-22T00:53:18.812Z,6.70
2022-12-22T00:58:39.708Z,1.53
2022-12-22T01:04:00.554Z,4.80
2022-12-22T01:09:22.836Z,5.95
2022-12-22T01:14:44.069Z,5.05
2022-12-22T01:20:05.926Z,7.40
2022-12-22T01:25:34.838Z,6.35
2022-12-22T01:30:55.756Z,2.15
2022-12-22T01:36:16.837Z,6.65
2022-12-22T01:41:39.643Z,5.20
2022-12-22T01:47:05.265Z,2.83
2022-12-22T01:52:28.034Z,5.17
2022-12-22T01:57:50.345Z,7.37
2022-12-22T02:03:11.284Z,4.55
2022-12-22T02:08:42.639Z,6.25
2022-12-22T02:14:29.507Z,7.40
2022-12-22T02:20:16.417Z,6.55
2022-12-22T02:25:46.684Z,2.85
2022-12-22T02:31:09.105Z,3.55
2022-12-22T02:36:33.795Z,5.20
2022-12-22T02:42:19.699Z,5.10
2022-12-22T02:48:09.069Z,3.60
2022-12-22T02:53:30.898Z,8.10
2022-12-22T02:58:53.039Z,4.95
2022-12-22T03:04:13.840Z,2.90
2022-12-22T03:09:34.847Z,3.10
2022-12-22T03:14:56.115Z,2.30
2022-12-22T03:20:16.998Z,2.30
2022-12-22T03:25:37.777Z,3.75
2022-12-22T03:30:40.033Z,3.40
2022-12-22T03:35:44.454Z,4.80
2022-12-22T03:40:46.954Z,3.10
2022-12-22T03:46:13.441Z,3.33
2022-12-22T03:51:15.636Z,6.90
2022-12-22T03:56:17.799Z,4.47
2022-12-22T04:01:20.000Z,3.30
2022-12-22T04:06:22.210Z,7.87
2022-12-22T04:11:42.705Z,8.10
2022-12-22T04:16:44.942Z,4.45
2022-12-22T04:21:47.117Z,2.83
2022-12-22T04:26:50.302Z,23.52
2022-12-22T04:31:52.490Z,4.43
2022-12-22T04:36:54.989Z,5.37
2022-12-22T04:41:57.687Z,3.70
2022-12-22T04:46:59.798Z,1.75
2022-12-22T04:52:01.997Z,1.77
2022-12-22T04:57:04.304Z,3.58
2022-12-22T05:02:06.906Z,4.40
2022-12-22T05:12:30.555Z,2.05
2022-12-22T05:17:32.679Z,5.50
2022-12-22T05:22:34.776Z,1.30
2022-12-22T05:27:37.009Z,3.50
2022-12-22T05:32:39.919Z,3.58
2022-12-22T05:37:42.091Z,4.43
2022-12-22T05:42:44.215Z,1.20
2022-12-22T05:47:52.261Z,2.05
2022-12-22T05:52:54.830Z,4.15
2022-12-22T05:57:57.460Z,6.97
2022-12-22T06:08:01.805Z,5.35
2022-12-22T06:13:03.981Z,6.45
2022-12-22T06:18:06.223Z,8.65
2022-12-22T06:23:08.546Z,7.93
2022-12-22T06:28:10.736Z,9.20
2022-12-22T06:33:12.901Z,10.18
2022-12-22T06:38:15.050Z,4.20
2022-12-22T06:43:17.636Z,5.55
2022-12-22T06:48:20.658Z,5.30
2022-12-22T06:53:23.466Z,4.00
2022-12-22T06:58:25.577Z,5.75
2022-12-22T07:03:28.309Z,2.92
2022-12-22T07:08:30.557Z,3.87
2022-12-22T07:13:34.963Z,7.90
2022-12-22T07:18:39.999Z,9.67
2022-12-22T07:23:42.201Z,6.40
2022-12-22T07:28:44.571Z,3.12
2022-12-22T07:33:47.216Z,7.22
2022-12-22T07:38:53.566Z,5.70
2022-12-22T07:43:58.227Z,9.80
2022-12-22T07:49:18.742Z,19.33
2022-12-22T07:54:20.809Z,8.10
2022-12-22T07:59:23.021Z,8.68
2022-12-22T08:04:25.740Z,19.52
2022-12-22T08:14:30.187Z,13.27
2022-12-22T08:19:34.087Z,10.70
2022-12-22T08:24:36.565Z,10.10
2022-12-22T08:29:41.121Z,14.55
2022-12-22T08:34:44.175Z,12.37
2022-12-22T08:39:52.220Z,12.20
2022-12-22T08:44:54.864Z,7.62
2022-12-22T08:54:59.065Z,4.00
2022-12-22T09:00:01.640Z,6.62
2022-12-22T09:05:04.786Z,10.20
2022-12-22T09:10:08.653Z,9.73
2022-12-22T09:15:11.085Z,7.47
2022-12-22T09:20:14.147Z,5.40
2022-12-22T09:25:18.330Z,8.43
2022-12-22T09:30:20.674Z,10.00
2022-12-22T09:35:22.827Z,3.30
2022-12-22T09:40:26.901Z,5.03
2022-12-22T09:45:30.325Z,3.63
2022-12-22T09:50:33.698Z,4.95
2022-12-22T09:55:42.553Z,2.70
2022-12-22T10:00:51.124Z,2.92
2022-12-22T10:06:15.765Z,1.43
2022-12-22T10:11:19.313Z,3.50
2022-12-22T10:16:28.717Z,3.30
2022-12-22T10:21:31.540Z,3.73
2022-12-22T10:26:34.499Z,4.20
2022-12-22T10:31:54.727Z,4.50
2022-12-22T10:37:03.178Z,2.12
2022-12-22T10:42:13.272Z,3.47
2022-12-22T10:47:24.368Z,1.23
2022-12-22T10:52:32.743Z,1.90
2022-12-22T10:57:37.107Z,4.13
2022-12-22T11:02:40.064Z,2.93
2022-12-22T11:07:44.568Z,0.60
2022-12-22T11:13:17.453Z,5.43
2022-12-22T11:18:33.643Z,0.93
2022-12-22T11:24:07.047Z,2.37
2022-12-22T11:29:15.352Z,0.40
2022-12-22T11:34:39.074Z,2.00
2022-12-22T11:45:34.241Z,0.67
2022-12-22T11:51:01.919Z,4.30
2022-12-22T11:56:26.714Z,1.50
2022-12-22T12:01:47.463Z,0.27
2022-12-22T12:07:02.349Z,0.30
2022-12-22T12:12:13.467Z,0.80
2022-12-22T12:17:28.753Z,0.57
2022-12-22T12:23:01.583Z,0.40
2022-12-22T12:28:03.621Z,1.07
2022-12-22T12:33:21.011Z,0.20
2022-12-22T12:44:06.232Z,1.70
2022-12-22T12:49:50.353Z,3.03
2022-12-22T12:55:17.131Z,1.62
2022-12-22T13:00:32.267Z,0.85
2022-12-22T13:05:51.818Z,0.68
2022-12-22T13:10:53.914Z,0.30
2022-12-22T13:16:02.495Z,3.40
2022-12-22T13:26:51.699Z,0.68
2022-12-22T13:32:01.685Z,0.10
2022-12-22T13:37:17.637Z,0.50
2022-12-22T13:42:19.834Z,1.80
2022-12-22T13:47:21.956Z,0.20
2022-12-22T13:52:24.473Z,2.10
2022-12-22T13:57:26.667Z,1.92
2022-12-22T14:02:32.692Z,0.65
2022-12-22T14:07:35.499Z,0.98
2022-12-22T14:12:44.640Z,0.80
2022-12-22T14:17:52.653Z,0.65
2022-12-22T14:23:04.339Z,0.52
2022-12-22T14:28:15.491Z,3.25
2022-12-22T14:33:30.859Z,0.40
2022-12-22T14:38:41.019Z,0.75
2022-12-22T14:43:43.158Z,4.03
2022-12-22T14:48:47.414Z,0.85
2022-12-22T14:53:49.611Z,3.50
2022-12-22T14:58:51.855Z,2.08
2022-12-22T15:04:04.659Z,4.90
2022-12-22T15:09:08.688Z,7.32
2022-12-22T15:14:13.014Z,4.93
2022-12-22T15:19:17.660Z,2.30
2022-12-22T15:24:19.849Z,0.77
2022-12-22T15:29:22.115Z,0.47
2022-12-22T15:34:30.827Z,1.08
2022-12-22T15:39:33.367Z,0.83
2022-12-22T15:44:38.991Z,2.70
2022-12-22T15:49:41.648Z,3.73
2022-12-22T15:54:44.624Z,3.55
2022-12-22T15:59:46.816Z,9.20
2022-12-22T16:04:49.366Z,8.55
2022-12-22T16:09:51.566Z,10.23
2022-12-22T16:14:56.904Z,10.10
2022-12-22T16:20:00.319Z,18.07
2022-12-22T16:25:04.669Z,18.90
2022-12-22T16:30:12.023Z,21.97
2022-12-22T16:35:20.382Z,18.40
2022-12-22T16:40:22.674Z,26.07
2022-12-22T16:45:28.710Z,34.63
2022-12-22T16:50:33.913Z,23.23
2022-12-22T16:55:36.224Z,31.97
2022-12-22T17:00:40.770Z,42.40
2022-12-22T17:05:48.465Z,34.87
2022-12-22T17:10:53.009Z,27.50
2022-12-22T17:15:55.758Z,38.73
2022-12-22T17:21:00.317Z,49.33
2022-12-22T17:26:06.312Z,26.77
2022-12-22T17:31:13.811Z,32.43
2022-12-22T17:36:35.665Z,28.63
2022-12-22T17:41:37.843Z,29.47
2022-12-22T17:46:40.123Z,27.85
2022-12-22T17:51:42.816Z,31.55
2022-12-22T17:56:45.907Z,66.62
2022-12-22T18:01:48.107Z,94.57
2022-12-22T18:06:50.398Z,40.10
2022-12-22T18:11:54.324Z,45.40
2022-12-22T18:16:56.565Z,185.82
2022-12-22T18:21:59.342Z,224.12
2022-12-22T18:32:03.938Z,46.00
2022-12-22T18:37:26.604Z,38.53
2022-12-22T18:42:29.092Z,30.80
2022-12-22T18:47:31.228Z,34.15
2022-12-22T18:52:33.483Z,42.08
2022-12-22T18:57:35.585Z,25.33
2022-12-22T19:02:37.816Z,24.67
2022-12-22T19:07:40.428Z,31.65
2022-12-22T19:12:43.202Z,29.63
2022-12-22T19:22:48.315Z,26.63
2022-12-22T19:27:54.044Z,38.33
2022-12-22T19:33:02.668Z,43.03
2022-12-22T19:38:17.916Z,28.17
2022-12-22T19:43:20.323Z,33.77
2022-12-22T19:48:24.508Z,27.62
2022-12-22T19:53:28.415Z,36.10
2022-12-22T19:58:37.858Z,26.03
2022-12-22T20:03:40.443Z,26.50
2022-12-22T20:08:42.709Z,29.63
2022-12-22T20:13:46.588Z,22.70
2022-12-22T20:18:48.773Z,19.27
2022-12-22T20:23:51.584Z,19.35
2022-12-22T20:28:54.517Z,12.67
2022-12-22T20:33:56.617Z,27.85
2022-12-22T20:39:00.354Z,20.98
2022-12-22T20:44:02.557Z,23.67
2022-12-22T20:49:10.725Z,11.85
2022-12-22T20:54:16.255Z,18.37
2022-12-22T20:59:21.369Z,14.70
2022-12-22T21:04:23.698Z,20.87
2022-12-22T21:09:26.899Z,15.60
2022-12-22T21:14:29.001Z,9.23
2022-12-22T21:19:31.064Z,13.30
2022-12-22T21:24:33.672Z,15.00
2022-12-22T21:29:36.215Z,13.35
2022-12-22T21:34:38.500Z,16.77
2022-12-22T21:39:47.105Z,8.35
2022-12-22T21:44:50.547Z,9.63
2022-12-22T21:49:52.701Z,14.67
2022-12-22T21:54:54.921Z,19.90
2022-12-22T21:59:57.013Z,10.50
2022-12-22T22:05:01.282Z,12.25
2022-12-22T22:10:03.893Z,8.23
2022-12-22T22:15:07.363Z,8.43
2022-12-22T22:20:18.510Z,9.25
2022-12-22T22:25:22.047Z,10.00
2022-12-22T22:30:25.861Z,12.73
2022-12-22T22:35:28.693Z,14.30
2022-12-22T22:40:30.825Z,6.93
2022-12-22T22:45:32.945Z,11.20
2022-12-22T22:50:35.483Z,5.80
2022-12-22T22:55:37.603Z,7.22
2022-12-22T23:00:40.806Z,7.95
2022-12-22T23:05:42.873Z,5.73
2022-12-22T23:10:49.576Z,4.25
2022-12-22T23:15:59.690Z,9.03
2022-12-22T23:21:04.083Z,6.05
2022-12-22T23:26:07.252Z,3.37
2022-12-22T23:31:12.620Z,4.00
2022-12-22T23:36:15.115Z,8.70
2022-12-22T23:41:18.174Z,4.40
2022-12-22T23:46:20.780Z,8.83
2022-12-22T23:56:26.882Z,5.28
